sensor_id;sensor_type;location;lat;lon;timestamp;pressure;altitude;pressure_sealevel;temperature;humidity
22181;BME280;11256;50.830;12.834;2023-02-19T00:03:01;97581.56;;;9.38;77.70
22181;BME280;11256;50.830;12.834;2023-02-19T00:08:02;97579.94;;;9.37;77.61
22181;BME280;11256;50.830;12.834;2023-02-19T00:13:03;97595.06;;;9.43;77.93
22181;BME280;11256;50.830;12.834;2023-02-19T00:18:03;97572.91;;;9.36;77.61
22181;BME280;11256;50.830;12.834;2023-02-19T00:23:03;97567.50;;;9.36;77.81
22181;BME280;11256;50.830;12.834;2023-02-19T00:28:04;97554.53;;;9.33;77.50
22181;BME280;11256;50.830;12.834;2023-02-19T00:33:04;97558.31;;;9.37;77.51
22181;BME280;11256;50.830;12.834;2023-02-19T00:38:04;97555.56;;;9.42;77.40
22181;BME280;11256;50.830;12.834;2023-02-19T00:43:05;97552.34;;;9.35;77.74
22181;BME280;11256;50.830;12.834;2023-02-19T00:48:05;97540.47;;;9.31;77.54
22181;BME280;11256;50.830;12.834;2023-02-19T00:53:05;97545.31;;;9.39;77.82
22181;BME280;11256;50.830;12.834;2023-02-19T00:58:06;97536.13;;;9.40;77.78
22181;BME280;11256;50.830;12.834;2023-02-19T01:03:06;97545.31;;;9.39;77.86
22181;BME280;11256;50.830;12.834;2023-02-19T01:08:06;97523.97;;;9.32;77.91
22181;BME280;11256;50.830;12.834;2023-02-19T01:13:07;97534.50;;;9.39;77.93
22181;BME280;11256;50.830;12.834;2023-02-19T01:18:07;97511.78;;;9.35;77.74
22181;BME280;11256;50.830;12.834;2023-02-19T01:23:09;97482.06;;;9.30;78.08
22181;BME280;11256;50.830;12.834;2023-02-19T01:28:10;97474.22;;;9.33;77.82
22181;BME280;11256;50.830;12.834;2023-02-19T01:33:10;97464.75;;;9.36;78.15
22181;BME280;11256;50.830;12.834;2023-02-19T01:38:11;97466.91;;;9.34;77.86
22181;BME280;11256;50.830;12.834;2023-02-19T01:43:14;97439.88;;;9.34;78.34
22181;BME280;11256;50.830;12.834;2023-02-19T01:48:16;97438.78;;;9.35;78.52
22181;BME280;11256;50.830;12.834;2023-02-19T01:53:20;97431.78;;;9.29;78.08
22181;BME280;11256;50.830;12.834;2023-02-19T01:58:24;97417.19;;;9.30;78.15
22181;BME280;11256;50.830;12.834;2023-02-19T02:03:26;97415.56;;;9.29;79.17
22181;BME280;11256;50.830;12.834;2023-02-19T02:08:27;97407.22;;;9.25;78.96
22181;BME280;11256;50.830;12.834;2023-02-19T02:13:48;97400.16;;;9.29;79.58
22181;BME280;11256;50.830;12.834;2023-02-19T02:35:10;97359.41;;;9.21;79.69
22181;BME280;11256;50.830;12.834;2023-02-19T02:40:12;97357.75;;;9.20;79.72
22181;BME280;11256;50.830;12.834;2023-02-19T02:55:53;97335.31;;;9.24;80.26
22181;BME280;11256;50.830;12.834;2023-02-19T03:00:58;97339.69;;;9.15;80.63
22181;BME280;11256;50.830;12.834;2023-02-19T03:06:20;97331.84;;;9.14;80.36
22181;BME280;11256;50.830;12.834;2023-02-19T03:11:23;97322.09;;;9.18;80.15
22181;BME280;11256;50.830;12.834;2023-02-19T03:16:43;97310.81;;;9.11;80.28
22181;BME280;11256;50.830;12.834;2023-02-19T03:22:17;97317.25;;;9.15;80.00
22181;BME280;11256;50.830;12.834;2023-02-19T03:27:20;97303.22;;;9.13;80.52
22181;BME280;11256;50.830;12.834;2023-02-19T03:32:29;97301.03;;;9.15;80.45
22181;BME280;11256;50.830;12.834;2023-02-19T03:37:36;97291.84;;;9.16;80.25
22181;BME280;11256;50.830;12.834;2023-02-19T03:43:03;97298.88;;;9.17;80.31
22181;BME280;11256;50.830;12.834;2023-02-19T03:53:51;97282.72;;;9.07;80.61
22181;BME280;11256;50.830;12.834;2023-02-19T03:59:07;97297.81;;;9.13;80.53
22181;BME280;11256;50.830;12.834;2023-02-19T04:04:18;97278.91;;;9.08;81.01
22181;BME280;11256;50.830;12.834;2023-02-19T04:09:22;97290.53;;;9.13;80.72
22181;BME280;11256;50.830;12.834;2023-02-19T04:14:43;97270.53;;;9.09;80.57
22181;BME280;11256;50.830;12.834;2023-02-19T04:19:48;97281.09;;;9.06;81.02
22181;BME280;11256;50.830;12.834;2023-02-19T04:24:51;97278.91;;;9.08;81.18
22181;BME280;11256;50.830;12.834;2023-02-19T04:29:52;97275.13;;;9.09;81.13
22181;BME280;11256;50.830;12.834;2023-02-19T04:34:52;97266.53;;;9.02;80.75
22181;BME280;11256;50.830;12.834;2023-02-19T04:39:53;97272.38;;;9.14;80.65
22181;BME280;11256;50.830;12.834;2023-02-19T04:44:53;97282.66;;;9.17;80.79
22181;BME280;11256;50.830;12.834;2023-02-19T04:49:53;97278.63;;;9.14;80.22
22181;BME280;11256;50.830;12.834;2023-02-19T04:54:54;97284.06;;;9.09;80.89
22181;BME280;11256;50.830;12.834;2023-02-19T04:59:54;97271.34;;;9.10;80.84
22181;BME280;11256;50.830;12.834;2023-02-19T05:04:54;97271.28;;;9.15;81.00
22181;BME280;11256;50.830;12.834;2023-02-19T05:09:55;97279.97;;;9.12;81.51
22181;BME280;11256;50.830;12.834;2023-02-19T05:14:56;97253.84;;;9.02;80.92
22181;BME280;11256;50.830;12.834;2023-02-19T05:19:56;97270.78;;;9.13;81.04
22181;BME280;11256;50.830;12.834;2023-02-19T05:24:56;97270.81;;;9.08;81.11
22181;BME280;11256;50.830;12.834;2023-02-19T05:29:56;97291.31;;;9.14;80.95
22181;BME280;11256;50.830;12.834;2023-02-19T05:34:57;97291.31;;;9.14;80.88
22181;BME280;11256;50.830;12.834;2023-02-19T05:39:57;97283.19;;;9.14;80.81
22181;BME280;11256;50.830;12.834;2023-02-19T05:44:57;97298.38;;;9.10;82.05
22181;BME280;11256;50.830;12.834;2023-02-19T05:49:58;97302.16;;;9.09;81.67
22181;BME280;11256;50.830;12.834;2023-02-19T05:54:58;97326.44;;;9.14;81.31
22181;BME280;11256;50.830;12.834;2023-02-19T05:59:58;97317.31;;;9.10;81.31
22181;BME280;11256;50.830;12.834;2023-02-19T06:04:59;97330.81;;;9.10;81.28
22181;BME280;11256;50.830;12.834;2023-02-19T06:09:59;97346.47;;;9.13;81.18
22181;BME280;11256;50.830;12.834;2023-02-19T06:14:59;97362.13;;;9.16;81.03
22181;BME280;11256;50.830;12.834;2023-02-19T06:20:00;97365.97;;;9.10;80.83
22181;BME280;11256;50.830;12.834;2023-02-19T06:25:00;97389.16;;;9.16;80.71
22181;BME280;11256;50.830;12.834;2023-02-19T06:30:01;97390.78;;;9.12;81.78
22181;BME280;11256;50.830;12.834;2023-02-19T06:35:02;97413.75;;;9.14;81.90
22181;BME280;11256;50.830;12.834;2023-02-19T06:40:02;97389.72;;;9.13;81.33
22181;BME280;11256;50.830;12.834;2023-02-19T06:45:03;97383.22;;;9.14;81.33
22181;BME280;11256;50.830;12.834;2023-02-19T06:50:03;97380.00;;;9.07;81.29
22181;BME280;11256;50.830;12.834;2023-02-19T06:55:04;97413.50;;;9.11;81.13
22181;BME280;11256;50.830;12.834;2023-02-19T07:00:05;97409.19;;;9.10;81.18
22181;BME280;11256;50.830;12.834;2023-02-19T07:05:05;97411.63;;;9.06;81.33
22181;BME280;11256;50.830;12.834;2023-02-19T07:10:06;97414.31;;;9.11;80.93
22181;BME280;11256;50.830;12.834;2023-02-19T07:15:06;97426.47;;;9.09;80.72
22181;BME280;11256;50.830;12.834;2023-02-19T07:20:07;97429.19;;;9.04;80.92
22181;BME280;11256;50.830;12.834;2023-02-19T07:25:07;97447.31;;;9.08;80.96
22181;BME280;11256;50.830;12.834;2023-02-19T07:30:08;97445.97;;;9.01;80.76
22181;BME280;11256;50.830;12.834;2023-02-19T07:35:09;97462.44;;;9.04;80.56
22181;BME280;11256;50.830;12.834;2023-02-19T07:40:09;97462.69;;;9.08;80.74
22181;BME280;11256;50.830;12.834;2023-02-19T07:45:09;97460.00;;;9.03;80.67
22181;BME280;11256;50.830;12.834;2023-02-19T07:50:10;97460.00;;;9.03;80.73
22181;BME280;11256;50.830;12.834;2023-02-19T07:55:10;97477.31;;;9.07;80.50
22181;BME280;11256;50.830;12.834;2023-02-19T08:00:11;97472.41;;;9.14;80.92
22181;BME280;11256;50.830;12.834;2023-02-19T08:05:15;97474.09;;;9.05;80.69
22181;BME280;11256;50.830;12.834;2023-02-19T08:10:15;97489.72;;;9.08;80.67
22181;BME280;11256;50.830;12.834;2023-02-19T08:15:42;97484.63;;;9.01;80.32
22181;BME280;11256;50.830;12.834;2023-02-19T08:20:43;97491.66;;;9.07;80.26
22181;BME280;11256;50.830;12.834;2023-02-19T08:25:43;97490.28;;;9.05;80.53
22181;BME280;11256;50.830;12.834;2023-02-19T08:30:45;97496.25;;;9.02;80.32
22181;BME280;11256;50.830;12.834;2023-02-19T08:35:46;97515.41;;;9.10;80.50
22181;BME280;11256;50.830;12.834;2023-02-19T08:40:46;97528.09;;;9.15;80.16
22181;BME280;11256;50.830;12.834;2023-02-19T08:45:47;97542.97;;;9.12;80.55
22181;BME280;11256;50.830;12.834;2023-02-19T08:51:14;97569.72;;;9.14;80.43
22181;BME280;11256;50.830;12.834;2023-02-19T08:56:15;97608.13;;;9.01;81.85
22181;BME280;11256;50.830;12.834;2023-02-19T09:01:16;97623.25;;;8.82;82.63
22181;BME280;11256;50.830;12.834;2023-02-19T09:06:18;97623.81;;;8.74;82.00
22181;BME280;11256;50.830;12.834;2023-02-19T09:11:19;97652.47;;;8.85;81.46
22181;BME280;11256;50.830;12.834;2023-02-19T09:16:19;97664.06;;;8.90;80.78
22181;BME280;11256;50.830;12.834;2023-02-19T09:21:19;97670.00;;;8.82;80.02
22181;BME280;11256;50.830;12.834;2023-02-19T09:26:20;97687.03;;;8.78;80.08
22181;BME280;11256;50.830;12.834;2023-02-19T09:31:20;97691.88;;;8.76;79.67
22181;BME280;11256;50.830;12.834;2023-02-19T09:36:20;97719.47;;;8.83;79.20
22181;BME280;11256;50.830;12.834;2023-02-19T09:46:48;97741.06;;;8.68;78.55
22181;BME280;11256;50.830;12.834;2023-02-19T09:57:35;97769.63;;;8.54;78.33
22181;BME280;11256;50.830;12.834;2023-02-19T10:02:35;97785.81;;;8.54;78.02
22181;BME280;11256;50.830;12.834;2023-02-19T10:07:39;97791.19;;;8.44;77.89
22181;BME280;11256;50.830;12.834;2023-02-19T10:12:53;97824.13;;;8.41;77.67
22181;BME280;11256;50.830;12.834;2023-02-19T10:17:54;97835.44;;;8.38;77.17
22181;BME280;11256;50.830;12.834;2023-02-19T10:23:02;97839.75;;;8.29;77.11
22181;BME280;11256;50.830;12.834;2023-02-19T10:28:03;97851.59;;;8.23;77.43
22181;BME280;11256;50.830;12.834;2023-02-19T10:33:15;97863.72;;;8.20;77.67
22181;BME280;11256;50.830;12.834;2023-02-19T10:38:18;97879.91;;;8.20;77.39
22181;BME280;11256;50.830;12.834;2023-02-19T10:43:24;97882.78;;;8.14;77.03
22181;BME280;11256;50.830;12.834;2023-02-19T10:48:34;97887.66;;;8.12;77.16
22181;BME280;11256;50.830;12.834;2023-02-19T10:53:47;97908.38;;;8.06;77.22
22181;BME280;11256;50.830;12.834;2023-02-19T10:58:48;97908.59;;;8.00;77.00
22181;BME280;11256;50.830;12.834;2023-02-19T11:03:50;97906.69;;;7.95;77.11
22181;BME280;11256;50.830;12.834;2023-02-19T11:13:55;97924.56;;;8.06;77.21
22181;BME280;11256;50.830;12.834;2023-02-19T11:18:56;97918.84;;;7.98;77.06
22181;BME280;11256;50.830;12.834;2023-02-19T11:23:58;97938.34;;;8.10;77.35
22181;BME280;11256;50.830;12.834;2023-02-19T11:29:02;97943.78;;;8.15;77.24
22181;BME280;11256;50.830;12.834;2023-02-19T11:44:31;97965.47;;;8.20;76.91
22181;BME280;11256;50.830;12.834;2023-02-19T11:49:47;97972.47;;;8.21;77.05
22181;BME280;11256;50.830;12.834;2023-02-19T12:00:43;97988.22;;;8.29;77.12
22181;BME280;11256;50.830;12.834;2023-02-19T12:05:59;97989.91;;;8.40;76.76
22181;BME280;11256;50.830;12.834;2023-02-19T12:11:34;97988.81;;;8.36;76.55
22181;BME280;11256;50.830;12.834;2023-02-19T12:16:54;97995.78;;;8.32;76.66
22181;BME280;11256;50.830;12.834;2023-02-19T12:27:50;98002.22;;;8.26;76.40
22181;BME280;11256;50.830;12.834;2023-02-19T12:33:23;98004.91;;;8.26;76.15
22181;BME280;11256;50.830;12.834;2023-02-19T12:43:34;98031.41;;;8.29;76.07
22181;BME280;11256;50.830;12.834;2023-02-19T12:53:53;98028.66;;;8.24;76.09
22181;BME280;11256;50.830;12.834;2023-02-19T12:59:03;98031.66;;;8.27;76.12
22181;BME280;11256;50.830;12.834;2023-02-19T13:04:27;98030.88;;;8.32;76.03
22181;BME280;11256;50.830;12.834;2023-02-19T13:09:39;98041.34;;;8.23;75.78
22181;BME280;11256;50.830;12.834;2023-02-19T13:14:47;98046.00;;;8.33;75.83
22181;BME280;11256;50.830;12.834;2023-02-19T13:19:51;98049.78;;;8.32;75.90
22181;BME280;11256;50.830;12.834;2023-02-19T13:24:55;98032.44;;;8.23;75.78
22181;BME280;11256;50.830;12.834;2023-02-19T13:30:20;98050.94;;;8.41;75.67
22181;BME280;11256;50.830;12.834;2023-02-19T13:40:52;98067.06;;;8.31;75.26
22181;BME280;11256;50.830;12.834;2023-02-19T13:45:56;98067.06;;;8.31;74.49
22181;BME280;11256;50.830;12.834;2023-02-19T14:28:03;98093.44;;;8.24;74.45
22181;BME280;11256;50.830;12.834;2023-02-19T14:33:08;98089.69;;;8.25;74.19
22181;BME280;11256;50.830;12.834;2023-02-19T14:38:17;98099.97;;;8.28;74.49
22181;BME280;11256;50.830;12.834;2023-02-19T14:43:22;98108.19;;;8.43;74.73
22181;BME280;11256;50.830;12.834;2023-02-19T14:48:28;98114.63;;;8.37;74.45
22181;BME280;11256;50.830;12.834;2023-02-19T14:53:31;98095.69;;;8.32;74.14
22181;BME280;11256;50.830;12.834;2023-02-19T14:58:35;98119.97;;;8.32;73.74
22181;BME280;11256;50.830;12.834;2023-02-19T15:03:38;98129.16;;;8.31;73.61
22181;BME280;11256;50.830;12.834;2023-02-19T15:08:51;98124.53;;;8.26;73.08
22181;BME280;11256;50.830;12.834;2023-02-19T15:13:56;98140.41;;;8.23;73.24
22181;BME280;11256;50.830;12.834;2023-02-19T15:18:58;98138.69;;;8.17;72.85
22181;BME280;11256;50.830;12.834;2023-02-19T15:24:02;98134.88;;;8.13;72.70
22181;BME280;11256;50.830;12.834;2023-02-19T15:29:09;98142.41;;;8.11;72.66
22181;BME280;11256;50.830;12.834;2023-02-19T15:34:19;98139.97;;;8.09;73.08
22181;BME280;11256;50.830;12.834;2023-02-19T15:39:23;98141.78;;;8.04;72.99
22181;BME280;11256;50.830;12.834;2023-02-19T15:44:29;98156.41;;;8.08;73.17
22181;BME280;11256;50.830;12.834;2023-02-19T15:50:01;98156.91;;;8.05;73.31
22181;BME280;11256;50.830;12.834;2023-02-19T15:55:06;98163.91;;;8.01;73.25
22181;BME280;11256;50.830;12.834;2023-02-19T16:00:24;98171.41;;;7.99;73.11
22181;BME280;11256;50.830;12.834;2023-02-19T16:05:28;98150.00;;;7.92;73.00
22181;BME280;11256;50.830;12.834;2023-02-19T16:10:29;98158.00;;;7.82;72.71
22181;BME280;11256;50.830;12.834;2023-02-19T16:15:31;98156.50;;;7.70;72.95
22181;BME280;11256;50.830;12.834;2023-02-19T16:20:33;98157.50;;;7.64;72.50
22181;BME280;11256;50.830;12.834;2023-02-19T16:25:37;98173.84;;;7.57;72.87
22181;BME280;11256;50.830;12.834;2023-02-19T16:30:40;98181.53;;;7.49;72.53
22181;BME280;11256;50.830;12.834;2023-02-19T16:35:40;98190.56;;;7.38;73.05
22181;BME280;11256;50.830;12.834;2023-02-19T16:45:47;98188.63;;;7.00;73.36
22181;BME280;11256;50.830;12.834;2023-02-19T16:50:47;98217.69;;;6.98;73.76
22181;BME280;11256;50.830;12.834;2023-02-19T16:55:47;98222.56;;;6.85;73.89
22181;BME280;11256;50.830;12.834;2023-02-19T17:00:47;98238.53;;;6.75;74.35
22181;BME280;11256;50.830;12.834;2023-02-19T17:05:48;98247.50;;;6.64;73.97
22181;BME280;11256;50.830;12.834;2023-02-19T17:10:49;98244.28;;;6.50;74.39
22181;BME280;11256;50.830;12.834;2023-02-19T17:15:50;98246.19;;;6.50;73.58
22181;BME280;11256;50.830;12.834;2023-02-19T17:21:11;98259.03;;;6.48;73.41
22181;BME280;11256;50.830;12.834;2023-02-19T17:26:16;98267.63;;;6.33;73.81
22181;BME280;11256;50.830;12.834;2023-02-19T17:31:16;98273.19;;;6.27;73.56
22181;BME280;11256;50.830;12.834;2023-02-19T17:36:28;98269.13;;;6.13;73.52
22181;BME280;11256;50.830;12.834;2023-02-19T17:41:29;98279.66;;;6.03;74.05
22181;BME280;11256;50.830;12.834;2023-02-19T17:46:30;98284.34;;;5.96;73.92
22181;BME280;11256;50.830;12.834;2023-02-19T17:51:30;98280.25;;;5.82;73.95
22181;BME280;11256;50.830;12.834;2023-02-19T17:56:30;98273.94;;;5.76;74.30
22181;BME280;11256;50.830;12.834;2023-02-19T18:01:31;98282.84;;;5.65;74.14
22181;BME280;11256;50.830;12.834;2023-02-19T18:06:31;98292.63;;;5.60;74.48
22181;BME280;11256;50.830;12.834;2023-02-19T18:11:31;98285.19;;;5.62;73.87
22181;BME280;11256;50.830;12.834;2023-02-19T18:16:31;98285.06;;;5.57;73.38
22181;BME280;11256;50.830;12.834;2023-02-19T18:21:32;98304.47;;;5.47;73.33
22181;BME280;11256;50.830;12.834;2023-02-19T18:26:32;98312.00;;;5.39;74.15
22181;BME280;11256;50.830;12.834;2023-02-19T18:31:33;98295.19;;;5.32;73.78
22181;BME280;11256;50.830;12.834;2023-02-19T18:36:33;98311.00;;;5.40;72.92
22181;BME280;11256;50.830;12.834;2023-02-19T18:41:33;98294.13;;;5.33;72.34
22181;BME280;11256;50.830;12.834;2023-02-19T18:46:34;98292.88;;;5.24;71.99
22181;BME280;11256;50.830;12.834;2023-02-19T18:51:34;98312.16;;;5.32;72.02
22181;BME280;11256;50.830;12.834;2023-02-19T18:56:45;98308.72;;;5.25;71.87
22181;BME280;11256;50.830;12.834;2023-02-19T19:01:45;98310.47;;;5.20;71.97
22181;BME280;11256;50.830;12.834;2023-02-19T19:06:45;98314.09;;;5.14;71.98
22181;BME280;11256;50.830;12.834;2023-02-19T19:11:46;98303.53;;;5.01;72.76
22181;BME280;11256;50.830;12.834;2023-02-19T19:16:46;98315.81;;;4.97;72.15
22181;BME280;11256;50.830;12.834;2023-02-19T19:21:51;98314.03;;;4.91;72.39
22181;BME280;11256;50.830;12.834;2023-02-19T19:26:52;98309.69;;;4.90;72.20
22181;BME280;11256;50.830;12.834;2023-02-19T19:31:52;98319.28;;;4.86;71.92
22181;BME280;11256;50.830;12.834;2023-02-19T19:36:53;98319.94;;;4.81;71.82
22181;BME280;11256;50.830;12.834;2023-02-19T19:41:54;98332.16;;;4.66;72.61
22181;BME280;11256;50.830;12.834;2023-02-19T19:46:54;98326.34;;;4.69;72.38
22181;BME280;11256;50.830;12.834;2023-02-19T19:51:55;98337.06;;;4.69;72.38
22181;BME280;11256;50.830;12.834;2023-02-19T19:57:00;98323.16;;;4.60;72.55
22181;BME280;11256;50.830;12.834;2023-02-19T20:02:00;98326.97;;;4.53;72.52
22181;BME280;11256;50.830;12.834;2023-02-19T20:07:01;98329.94;;;4.45;72.87
22181;BME280;11256;50.830;12.834;2023-02-19T20:12:02;98328.09;;;4.45;72.67
22181;BME280;11256;50.830;12.834;2023-02-19T20:17:03;98310.06;;;4.34;72.79
22181;BME280;11256;50.830;12.834;2023-02-19T20:22:03;98316.56;;;4.27;73.26
22181;BME280;11256;50.830;12.834;2023-02-19T20:27:03;98313.72;;;4.22;73.12
22181;BME280;11256;50.830;12.834;2023-02-19T20:32:04;98301.06;;;4.11;73.44
22181;BME280;11256;50.830;12.834;2023-02-19T20:37:05;98316.25;;;4.17;73.32
22181;BME280;11256;50.830;12.834;2023-02-19T20:42:05;98311.44;;;4.07;73.68
22181;BME280;11256;50.830;12.834;2023-02-19T20:47:06;98322.38;;;4.06;73.84
22181;BME280;11256;50.830;12.834;2023-02-19T20:52:06;98329.59;;;4.05;73.88
22181;BME280;11256;50.830;12.834;2023-02-19T20:57:08;98326.84;;;4.12;73.44
22181;BME280;11256;50.830;12.834;2023-02-19T21:02:16;98326.25;;;4.10;73.37
22181;BME280;11256;50.830;12.834;2023-02-19T21:07:16;98338.53;;;4.17;73.40
22181;BME280;11256;50.830;12.834;2023-02-19T21:12:18;98336.06;;;4.16;73.60
22181;BME280;11256;50.830;12.834;2023-02-19T21:17:18;98336.66;;;4.18;73.38
22181;BME280;11256;50.830;12.834;2023-02-19T21:22:19;98346.50;;;4.24;73.16
22181;BME280;11256;50.830;12.834;2023-02-19T21:27:19;98343.81;;;4.24;73.29
22181;BME280;11256;50.830;12.834;2023-02-19T21:32:20;98334.50;;;4.26;73.33
22181;BME280;11256;50.830;12.834;2023-02-19T21:37:20;98335.84;;;4.35;73.27
22181;BME280;11256;50.830;12.834;2023-02-19T21:42:20;98352.78;;;4.36;73.54
22181;BME280;11256;50.830;12.834;2023-02-19T21:47:21;98359.31;;;4.40;73.16
22181;BME280;11256;50.830;12.834;2023-02-19T21:52:21;98360.06;;;4.47;73.38
22181;BME280;11256;50.830;12.834;2023-02-19T21:57:22;98350.50;;;4.51;73.33
22181;BME280;11256;50.830;12.834;2023-02-19T22:02:22;98349.34;;;4.47;73.27
22181;BME280;11256;50.830;12.834;2023-02-19T22:07:23;98347.97;;;4.56;72.80
22181;BME280;11256;50.830;12.834;2023-02-19T22:12:24;98334.31;;;4.57;73.10
22181;BME280;11256;50.830;12.834;2023-02-19T22:17:24;98340.53;;;4.58;73.24
22181;BME280;11256;50.830;12.834;2023-02-19T22:22:25;98330.38;;;4.60;73.16
22181;BME280;11256;50.830;12.834;2023-02-19T22:27:27;98326.41;;;4.62;73.13
22181;BME280;11256;50.830;12.834;2023-02-19T22:32:27;98308.31;;;4.58;73.17
22181;BME280;11256;50.830;12.834;2023-02-19T22:37:28;98336.09;;;4.63;73.31
22181;BME280;11256;50.830;12.834;2023-02-19T22:42:29;98330.50;;;4.65;73.26
22181;BME280;11256;50.830;12.834;2023-02-19T22:47:29;98328.41;;;4.67;73.71
22181;BME280;11256;50.830;12.834;2023-02-19T22:52:29;98332.50;;;4.69;73.56
22181;BME280;11256;50.830;12.834;2023-02-19T22:57:29;98327.13;;;4.69;73.77
22181;BME280;11256;50.830;12.834;2023-02-19T23:02:30;98318.72;;;4.66;73.70
22181;BME280;11256;50.830;12.834;2023-02-19T23:07:30;98309.63;;;4.67;73.97
22181;BME280;11256;50.830;12.834;2023-02-19T23:12:30;98307.69;;;4.74;73.99
22181;BME280;11256;50.830;12.834;2023-02-19T23:17:31;98313.06;;;4.74;74.19
22181;BME280;11256;50.830;12.834;2023-02-19T23:22:31;98303.94;;;4.75;74.01
22181;BME280;11256;50.830;12.834;2023-02-19T23:27:34;98308.84;;;4.78;74.13
22181;BME280;11256;50.830;12.834;2023-02-19T23:32:34;98311.09;;;4.81;74.17
22181;BME280;11256;50.830;12.834;2023-02-19T23:37:34;98295.78;;;4.81;74.34
22181;BME280;11256;50.830;12.834;2023-02-19T23:42:35;98276.63;;;4.78;74.17
22181;BME280;11256;50.830;12.834;2023-02-19T23:47:36;98277.38;;;4.85;74.37
22181;BME280;11256;50.830;12.834;2023-02-19T23:52:36;98274.69;;;4.85;74.11
22181;BME280;11256;50.830;12.834;2023-02-19T23:57:37;98276.91;;;4.88;74.25
